CYYZ/YYZ METAR and TAF weather

Enter ICAO airport designator
Station Type Date Time Source
CYYZ METAR 2020/07/13 14:00 UTC NOAA

CYYZ 131400Z 34011KT 15SM FEW055 BKN090 22/15 A2987 RMK CU1AC6 SLP114 DENSITY ALT 1600FT


Station Type Date Time Source
CYYZ Decoded METAR 2020/07/13 14:00 UTC NOAA

Toronto Pearson Int'L. Ont., Canada (CYYZ) 43-40N 079-38W 173M
Jul 13, 2020 - 10:00 AM EDT / 2020.07.13 1400 UTC
Wind: from the NNW (340 degrees) at 13 MPH (11 KT):0
Visibility: 15 mile(s):0
Sky conditions: mostly cloudy
Temperature: 71 F (22 C)
Dew Point: 59 F (15 C)
Relative Humidity: 64%
Pressure (altimeter): 29.87 in. Hg (1011 hPa)
ob: CYYZ 131400Z 34011KT 15SM FEW055 BKN090 22/15 A2987 RMK CU1AC6 SLP114 DENSITY ALT 1600FT
cycle: 14

Station Type Date Time Source
CYYZ TAF 2020/07/13 15:42 UTC NOAA

TAF CYYZ 131439Z 1315/1418 34012KT P6SM SCT050 BKN090
FM131600 33012KT P6SM BKN040
TEMPO 1316/1324 P6SM -SHRA PROB40 1317/1322 VRB15G25KT 2SM TSRA BR BKN020 OVC040CB
FM140000 35008KT P6SM BKN040
BECMG 1400/1402 FEW040
FM141400 34010KT P6SM BKN050
RMK NXT FCST BY 131800Z

Example: see airport list